Terminal Aerodrome Forecast
Issued by NWS Wakefield, VA

Home | Current Version | Previous Version | Text Only | Print | Product List | Glossary On
Versions: 1 2 3 4 5 6 7 8 9 10 11 12
000
FTUS41 KAKQ 041723
TAFSBY
TAF
KSBY 041723Z 0418/0518 22013G21KT P6SM SCT070
     FM042200 20010KT P6SM SKC
     FM050200 19005KT P6SM SKC
     FM051400 23011KT P6SM SKC=

USA.gov is the U.S. government's official web portal to all federal, state and local government web resources and services.